createdAt,value
2017-09-06T00:00:15.835Z,96.93
2017-09-06T00:02:45.365Z,96.91
2017-09-06T00:05:15.125Z,96.92
2017-09-06T00:07:44.557Z,96.98
2017-09-06T00:10:14.142Z,96.95
2017-09-06T00:12:43.707Z,96.50
2017-09-06T00:15:13.474Z,96.25
2017-09-06T00:17:43.049Z,96.09
2017-09-06T00:20:12.520Z,96.09
2017-09-06T00:22:42.245Z,96.24
2017-09-06T00:25:12.067Z,96.31
2017-09-06T00:27:41.774Z,96.37
2017-09-06T00:30:11.620Z,96.44
2017-09-06T00:32:41.070Z,96.48
2017-09-06T00:35:10.850Z,96.56
2017-09-06T00:37:40.577Z,96.71
2017-09-06T00:40:10.344Z,96.88
2017-09-06T00:42:40.069Z,96.98
2017-09-06T00:45:09.831Z,97.25
2017-09-06T00:47:39.571Z,97.58
2017-09-06T00:50:09.326Z,97.76
2017-09-06T00:52:38.537Z,97.95
2017-09-06T00:55:08.376Z,98.06
2017-09-06T00:57:37.749Z,98.11
2017-09-06T01:00:07.004Z,98.08
2017-09-06T01:02:36.552Z,98.07
2017-09-06T01:05:06.140Z,98.13
2017-09-06T01:07:35.856Z,98.20
2017-09-06T01:10:05.660Z,98.45
2017-09-06T01:12:35.399Z,98.52
2017-09-06T01:15:05.026Z,98.54
2017-09-06T01:17:35.120Z,98.55
2017-09-06T01:20:04.796Z,98.71
2017-09-06T01:22:34.509Z,98.86
2017-09-06T01:25:04.331Z,98.97
2017-09-06T01:27:33.901Z,99.11
2017-09-06T01:30:03.676Z,99.25
2017-09-06T01:32:33.440Z,99.33
2017-09-06T01:35:03.048Z,99.39
2017-09-06T01:37:32.788Z,99.43
2017-09-06T01:40:02.559Z,99.44
2017-09-06T01:42:32.293Z,99.42
2017-09-06T01:45:02.091Z,99.34
2017-09-06T01:47:31.813Z,99.33
2017-09-06T01:50:01.771Z,99.31
2017-09-06T01:52:30.980Z,99.34
2017-09-06T01:55:00.710Z,99.39
2017-09-06T01:57:30.457Z,99.43
2017-09-06T02:00:00.275Z,99.42
2017-09-06T02:02:29.821Z,99.42
2017-09-06T02:04:59.401Z,99.43
2017-09-06T02:07:29.824Z,99.41
2017-09-06T02:09:59.557Z,99.33
2017-09-06T02:12:29.288Z,99.23
2017-09-06T02:14:59.043Z,99.15
2017-09-06T02:17:28.780Z,99.12
2017-09-06T02:19:58.516Z,99.10
2017-09-06T02:22:28.248Z,99.07
2017-09-06T02:24:57.973Z,99.11
2017-09-06T02:27:27.696Z,99.13
2017-09-06T02:29:57.447Z,99.18
2017-09-06T02:32:27.193Z,99.31
2017-09-06T02:34:56.951Z,99.38
2017-09-06T02:37:26.689Z,99.44
2017-09-06T02:39:56.426Z,99.48
2017-09-06T02:42:25.832Z,99.49
2017-09-06T02:44:55.553Z,99.48
2017-09-06T02:47:25.287Z,99.50
2017-09-06T02:49:54.673Z,99.48
2017-09-06T02:52:24.473Z,99.48
2017-09-06T02:54:54.204Z,99.57
2017-09-06T02:57:23.960Z,99.65
2017-09-06T02:59:53.705Z,99.62
2017-09-06T03:02:23.477Z,99.59
2017-09-06T03:04:53.220Z,99.62
2017-09-06T03:07:22.982Z,99.68
2017-09-06T03:09:52.712Z,99.80
2017-09-06T03:12:22.441Z,99.84
2017-09-06T03:14:52.179Z,99.86
2017-09-06T03:17:21.929Z,99.86
2017-09-06T03:19:51.769Z,99.87
2017-09-06T03:22:21.499Z,99.89
2017-09-06T03:24:51.244Z,99.92
2017-09-06T03:27:20.799Z,99.94
2017-09-06T03:29:50.753Z,99.95
2017-09-06T03:32:20.551Z,99.88
2017-09-06T03:34:50.273Z,99.82
2017-09-06T03:37:20.009Z,99.78
2017-09-06T03:39:49.739Z,99.74
2017-09-06T03:42:19.472Z,99.68
2017-09-06T03:44:49.025Z,99.59
2017-09-06T03:47:18.939Z,99.49
2017-09-06T03:49:48.656Z,99.43
2017-09-06T03:52:18.391Z,99.35
2017-09-06T03:54:48.125Z,99.24
2017-09-06T03:57:17.858Z,99.10
2017-09-06T03:59:47.603Z,99.02
2017-09-06T04:02:17.337Z,98.89
2017-09-06T04:04:47.065Z,98.79
2017-09-06T04:07:16.809Z,98.76
2017-09-06T04:09:47.441Z,98.73
2017-09-06T04:12:17.174Z,98.70
2017-09-06T04:14:46.995Z,98.66
2017-09-06T04:17:16.756Z,98.57
2017-09-06T04:19:46.470Z,98.53
2017-09-06T04:22:16.209Z,98.52
2017-09-06T04:29:24.029Z,98.18
2017-09-06T04:31:53.485Z,98.14
2017-09-06T04:34:23.216Z,98.12
2017-09-06T04:36:52.953Z,98.11
2017-09-06T04:39:22.757Z,98.09
2017-09-06T04:41:52.516Z,98.03
2017-09-06T04:44:22.265Z,97.98
2017-09-06T04:46:52.030Z,97.91
2017-09-06T04:49:21.760Z,97.84
2017-09-06T04:51:51.308Z,97.78
2017-09-06T04:54:20.917Z,97.71
2017-09-06T04:56:50.641Z,97.63
2017-09-06T04:59:20.388Z,97.58
2017-09-06T05:01:50.132Z,97.50
2017-09-06T05:04:19.864Z,97.35
2017-09-06T05:06:49.316Z,97.22
2017-09-06T05:09:19.054Z,97.06
2017-09-06T05:11:49.528Z,96.92
2017-09-06T05:14:18.979Z,96.83
2017-09-06T05:16:48.484Z,96.71
2017-09-06T05:19:17.945Z,96.60
2017-09-06T05:21:47.418Z,96.53
2017-09-06T05:24:17.188Z,96.49
2017-09-06T05:26:46.648Z,96.35
2017-09-06T05:29:16.107Z,96.26
2017-09-06T05:31:45.740Z,96.17
2017-09-06T05:34:15.213Z,95.93
2017-09-06T05:36:44.706Z,95.73
2017-09-06T05:39:14.173Z,95.19
2017-09-06T05:41:43.630Z,94.87
2017-09-06T05:44:13.180Z,94.00
2017-09-06T05:46:42.616Z,93.78
2017-09-06T05:49:12.088Z,93.10
2017-09-06T05:51:41.546Z,92.85
2017-09-06T05:54:11.011Z,92.70
2017-09-06T05:56:40.460Z,92.78
2017-09-06T05:59:09.931Z,92.69
2017-09-06T06:01:39.380Z,92.28
2017-09-06T06:04:08.832Z,92.07
2017-09-06T06:06:38.288Z,91.90
2017-09-06T06:09:07.732Z,91.15
2017-09-06T06:11:37.187Z,90.33
2017-09-06T06:14:06.658Z,90.46
2017-09-06T06:16:36.100Z,90.44
2017-09-06T06:19:05.580Z,90.30
2017-09-06T06:21:35.058Z,90.59
2017-09-06T06:24:04.516Z,90.58
2017-09-06T06:26:33.973Z,90.27
2017-09-06T06:29:03.420Z,89.85
2017-09-06T06:31:32.873Z,89.57
2017-09-06T06:34:02.383Z,89.16
2017-09-06T06:36:31.849Z,88.78
2017-09-06T06:39:01.281Z,88.17
2017-09-06T06:41:30.795Z,87.67
2017-09-06T06:44:00.308Z,87.09
2017-09-06T06:46:29.757Z,85.86
2017-09-06T06:48:59.256Z,83.85
2017-09-06T06:51:28.717Z,83.02
2017-09-06T06:53:58.164Z,81.57
2017-09-06T06:56:27.620Z,79.94
2017-09-06T06:58:57.074Z,78.72
2017-09-06T07:01:26.527Z,76.85
2017-09-06T07:03:55.992Z,75.65
2017-09-06T07:06:25.445Z,75.20
2017-09-06T07:08:54.886Z,74.87
2017-09-06T07:11:24.365Z,72.90
2017-09-06T07:13:53.825Z,72.59
2017-09-06T07:16:23.350Z,71.65
2017-09-06T07:18:52.816Z,71.74
2017-09-06T07:21:22.294Z,72.44
2017-09-06T07:23:51.743Z,71.87
2017-09-06T07:26:21.291Z,71.28
2017-09-06T07:28:50.774Z,72.02
2017-09-06T07:31:20.321Z,71.88
2017-09-06T07:33:49.769Z,71.80
2017-09-06T07:36:19.220Z,70.49
2017-09-06T07:38:48.832Z,69.88
2017-09-06T07:41:18.280Z,69.81
2017-09-06T07:43:47.845Z,70.22
2017-09-06T07:46:17.277Z,69.18
2017-09-06T07:48:46.796Z,69.09
2017-09-06T07:51:16.248Z,67.93
2017-09-06T07:53:45.697Z,67.88
2017-09-06T07:56:15.153Z,66.64
2017-09-06T07:58:44.597Z,67.04
2017-09-06T08:01:14.055Z,68.20
2017-09-06T08:03:43.513Z,67.99
2017-09-06T08:06:12.957Z,68.18
2017-09-06T08:08:42.462Z,68.46
2017-09-06T08:11:11.997Z,68.67
2017-09-06T08:13:41.463Z,67.49
2017-09-06T08:16:10.933Z,66.40
2017-09-06T08:18:40.492Z,66.42
2017-09-06T08:21:09.937Z,65.32
2017-09-06T08:23:39.931Z,64.83
2017-09-06T08:26:09.381Z,64.22
2017-09-06T08:28:38.829Z,65.14
2017-09-06T08:31:08.303Z,64.99
2017-09-06T08:33:37.760Z,65.37
2017-09-06T08:36:07.217Z,65.20
2017-09-06T08:38:36.677Z,65.91
2017-09-06T08:41:06.213Z,66.79
2017-09-06T08:43:35.680Z,66.38
2017-09-06T08:46:05.292Z,66.01
2017-09-06T08:48:34.745Z,66.27
2017-09-06T08:51:04.234Z,67.31
2017-09-06T08:53:33.697Z,67.85
2017-09-06T08:56:03.161Z,67.45
2017-09-06T08:58:32.629Z,67.43
2017-09-06T09:01:02.069Z,67.42
2017-09-06T09:03:31.514Z,66.78
2017-09-06T09:06:00.954Z,66.74
2017-09-06T09:08:30.408Z,65.95
2017-09-06T09:10:59.869Z,66.10
2017-09-06T09:13:29.330Z,65.93
2017-09-06T09:15:58.770Z,66.30
2017-09-06T09:18:28.233Z,64.64
2017-09-06T09:20:57.708Z,65.58
2017-09-06T09:23:27.155Z,63.32
2017-09-06T09:25:56.419Z,61.91
2017-09-06T09:28:25.518Z,60.99
2017-09-06T09:30:54.960Z,59.99
2017-09-06T09:33:24.408Z,60.56
2017-09-06T09:35:53.841Z,60.07
2017-09-06T09:38:23.303Z,59.63
2017-09-06T09:40:52.744Z,61.13
2017-09-06T09:43:22.209Z,61.04
2017-09-06T09:45:51.657Z,62.28
2017-09-06T09:48:21.096Z,62.64
2017-09-06T09:50:50.549Z,62.49
2017-09-06T09:53:19.988Z,64.73
2017-09-06T09:55:49.436Z,64.53
2017-09-06T09:58:18.885Z,66.72
2017-09-06T10:00:48.369Z,66.54
2017-09-06T10:03:17.796Z,66.49
2017-09-06T10:05:47.236Z,66.66
2017-09-06T10:08:16.698Z,66.44
2017-09-06T10:10:46.132Z,66.14
2017-09-06T10:13:15.593Z,65.10
2017-09-06T10:15:45.055Z,64.27
2017-09-06T10:18:14.507Z,63.95
2017-09-06T10:20:43.947Z,61.95
2017-09-06T10:23:13.400Z,63.93
2017-09-06T10:25:42.844Z,63.80
2017-09-06T10:28:12.280Z,62.37
2017-09-06T10:30:41.725Z,62.61
2017-09-06T10:33:11.169Z,62.16
2017-09-06T10:35:40.620Z,63.59
2017-09-06T10:38:10.061Z,64.79
2017-09-06T10:40:39.522Z,64.26
2017-09-06T10:43:08.953Z,65.13
2017-09-06T10:45:38.421Z,64.95
2017-09-06T10:48:07.861Z,65.15
2017-09-06T10:50:37.376Z,64.47
2017-09-06T10:53:06.812Z,63.30
2017-09-06T10:55:36.261Z,62.97
2017-09-06T10:58:05.700Z,61.81
2017-09-06T11:00:35.148Z,60.71
2017-09-06T11:03:04.419Z,62.47
2017-09-06T11:05:33.882Z,62.06
2017-09-06T11:08:03.348Z,62.42
2017-09-06T11:10:32.795Z,64.62
2017-09-06T11:13:02.229Z,63.39
2017-09-06T11:15:31.707Z,65.21
2017-09-06T11:18:01.168Z,64.20
2017-09-06T11:20:30.596Z,66.44
2017-09-06T11:23:00.048Z,67.70
2017-09-06T11:25:29.480Z,68.17
2017-09-06T11:27:58.920Z,69.34
2017-09-06T11:30:28.377Z,70.19
2017-09-06T11:32:57.846Z,69.97
2017-09-06T11:35:27.296Z,69.27
2017-09-06T11:37:56.737Z,70.27
2017-09-06T11:40:26.169Z,72.51
2017-09-06T11:42:55.645Z,75.88
2017-09-06T11:45:25.154Z,76.28
2017-09-06T11:47:54.607Z,77.55
2017-09-06T11:50:23.912Z,79.16
2017-09-06T11:52:53.390Z,79.32
2017-09-06T11:55:22.877Z,77.18
2017-09-06T11:57:52.330Z,78.82
2017-09-06T12:00:21.810Z,80.32
2017-09-06T12:02:51.246Z,80.95
2017-09-06T12:05:20.733Z,82.04
2017-09-06T12:07:50.175Z,83.25
2017-09-06T12:10:19.466Z,83.19
2017-09-06T12:12:48.918Z,82.71
2017-09-06T12:15:18.420Z,83.08
2017-09-06T12:17:48.914Z,82.41
2017-09-06T12:20:18.400Z,78.55
2017-09-06T12:22:47.846Z,79.19
2017-09-06T12:25:17.336Z,78.32
2017-09-06T12:27:46.844Z,81.02
2017-09-06T12:30:16.329Z,81.05
2017-09-06T12:32:45.585Z,79.57
2017-09-06T12:35:14.914Z,79.04
2017-09-06T12:37:44.152Z,78.25
2017-09-06T12:40:13.440Z,77.26
2017-09-06T12:42:42.676Z,75.75
2017-09-06T12:45:11.945Z,75.90
2017-09-06T12:47:41.195Z,70.53
2017-09-06T12:50:10.475Z,68.29
2017-09-06T12:52:39.724Z,67.38
2017-09-06T12:55:09.004Z,67.07
2017-09-06T12:57:38.265Z,69.82
2017-09-06T13:00:07.517Z,68.70
2017-09-06T13:02:36.785Z,66.63
2017-09-06T13:05:06.060Z,68.09
2017-09-06T13:07:35.291Z,66.29
2017-09-06T13:10:04.616Z,67.89
2017-09-06T13:12:33.929Z,63.99
2017-09-06T13:15:03.230Z,62.12
2017-09-06T13:17:32.469Z,57.73
2017-09-06T13:20:01.731Z,55.89
2017-09-06T13:22:30.966Z,54.29
2017-09-06T13:25:00.378Z,55.10
2017-09-06T13:27:29.621Z,56.84
2017-09-06T13:29:58.883Z,61.12
2017-09-06T13:32:28.122Z,61.51
2017-09-06T13:34:57.184Z,59.14
2017-09-06T13:37:26.429Z,59.37
2017-09-06T13:39:55.698Z,59.16
2017-09-06T13:42:25.035Z,58.18
2017-09-06T13:44:54.252Z,57.54
2017-09-06T13:47:23.498Z,58.17
2017-09-06T13:49:52.767Z,53.52
2017-09-06T13:52:22.035Z,50.11
2017-09-06T13:54:54.621Z,48.59
2017-09-06T13:57:23.913Z,48.06
2017-09-06T13:59:53.132Z,45.17
2017-09-06T14:02:22.388Z,43.33
2017-09-06T14:04:51.629Z,47.81
2017-09-06T14:07:20.924Z,49.50
2017-09-06T14:09:50.173Z,52.44
2017-09-06T14:12:19.463Z,52.64
2017-09-06T14:14:48.694Z,53.16
2017-09-06T14:17:17.937Z,54.46
2017-09-06T14:19:47.256Z,58.12
2017-09-06T14:22:16.537Z,58.47
2017-09-06T14:24:45.814Z,62.25
2017-09-06T14:27:15.092Z,62.16
2017-09-06T14:29:44.515Z,63.20
2017-09-06T14:32:13.753Z,64.73
2017-09-06T14:34:42.984Z,65.01
2017-09-06T14:37:12.250Z,66.38
2017-09-06T14:39:41.497Z,64.78
2017-09-06T14:42:10.736Z,62.41
2017-09-06T14:44:39.988Z,60.02
2017-09-06T14:47:09.241Z,55.86
2017-09-06T14:49:38.484Z,55.01
2017-09-06T14:52:07.722Z,52.32
2017-09-06T14:54:36.957Z,54.91
2017-09-06T14:57:06.209Z,55.58
2017-09-06T14:59:36.370Z,54.26
2017-09-06T15:02:05.445Z,54.41
2017-09-06T15:04:34.710Z,55.06
2017-09-06T15:07:03.950Z,57.48
2017-09-06T15:09:33.194Z,55.16
2017-09-06T15:12:02.470Z,55.31
2017-09-06T15:14:31.804Z,56.69
2017-09-06T15:17:01.053Z,57.21
2017-09-06T15:19:30.300Z,57.97
2017-09-06T15:21:59.554Z,58.55
2017-09-06T15:24:28.808Z,60.48
2017-09-06T15:26:58.050Z,62.12
2017-09-06T15:29:27.305Z,62.15
2017-09-06T15:31:56.568Z,63.82
2017-09-06T15:34:25.849Z,64.89
2017-09-06T15:36:55.084Z,66.99
2017-09-06T15:39:24.398Z,67.70
2017-09-06T15:41:53.618Z,68.72
2017-09-06T15:44:22.858Z,69.23
2017-09-06T15:46:52.158Z,70.79
2017-09-06T15:49:21.369Z,71.54
2017-09-06T15:51:50.615Z,71.92
2017-09-06T15:54:19.873Z,72.47
2017-09-06T15:56:49.119Z,72.78
2017-09-06T15:59:18.361Z,73.52
2017-09-06T16:01:47.610Z,73.64
2017-09-06T16:04:16.870Z,74.83
2017-09-06T16:06:46.127Z,74.93
2017-09-06T16:09:15.378Z,75.38
2017-09-06T16:11:44.831Z,75.61
2017-09-06T16:14:14.269Z,76.39
2017-09-06T16:16:43.710Z,76.42
2017-09-06T16:19:13.150Z,76.80
2017-09-06T16:21:42.652Z,77.13
2017-09-06T16:24:12.082Z,77.40
2017-09-06T16:26:41.556Z,77.14
2017-09-06T16:29:11.341Z,76.40
2017-09-06T16:31:40.773Z,76.51
2017-09-06T16:34:10.277Z,76.26
2017-09-06T16:36:39.708Z,76.77
2017-09-06T16:39:09.161Z,76.49
2017-09-06T16:41:38.593Z,75.93
2017-09-06T16:44:08.041Z,75.56
2017-09-06T16:46:37.568Z,75.05
2017-09-06T16:49:07.037Z,73.75
2017-09-06T16:51:36.479Z,72.22
2017-09-06T16:54:05.929Z,70.29
2017-09-06T16:56:35.357Z,70.21
2017-09-06T16:59:04.807Z,68.29
2017-09-06T17:01:34.255Z,69.18
2017-09-06T17:04:03.553Z,70.50
2017-09-06T17:06:32.997Z,72.74
2017-09-06T17:09:02.443Z,73.47
2017-09-06T17:11:31.710Z,74.26
2017-09-06T17:14:01.147Z,76.03
2017-09-06T17:16:30.619Z,77.02
2017-09-06T17:19:00.082Z,77.81
2017-09-06T17:21:29.407Z,78.97
2017-09-06T17:23:58.874Z,79.73
2017-09-06T17:26:28.307Z,80.54
2017-09-06T17:28:57.753Z,81.32
2017-09-06T17:31:27.257Z,81.62
2017-09-06T17:33:56.674Z,82.31
2017-09-06T17:36:26.152Z,83.08
2017-09-06T17:38:55.593Z,84.09
2017-09-06T17:41:25.211Z,85.25
2017-09-06T17:43:54.641Z,85.71
2017-09-06T17:46:24.118Z,86.39
2017-09-06T17:48:53.541Z,87.29
2017-09-06T17:51:22.998Z,87.92
2017-09-06T17:53:52.465Z,88.04
2017-09-06T17:56:21.918Z,88.18
2017-09-06T17:58:51.376Z,88.58
2017-09-06T18:01:20.827Z,88.82
2017-09-06T18:03:50.343Z,88.85
2017-09-06T18:06:19.910Z,88.83
2017-09-06T18:08:49.350Z,88.63
2017-09-06T18:11:18.849Z,88.54
2017-09-06T18:13:48.318Z,88.99
2017-09-06T18:16:17.843Z,90.48
2017-09-06T18:18:47.284Z,90.65
2017-09-06T18:21:16.744Z,93.87
2017-09-06T18:23:46.195Z,94.95
2017-09-06T18:26:15.705Z,96.94
2017-09-06T18:28:45.159Z,97.56
2017-09-06T18:31:14.629Z,98.45
2017-09-06T18:33:44.090Z,98.94
2017-09-06T18:36:13.345Z,99.49
2017-09-06T18:38:42.826Z,99.91
2017-09-06T18:41:12.288Z,100.00
2017-09-06T18:43:41.723Z,100.00
2017-09-06T18:46:11.186Z,100.00
2017-09-06T18:48:40.664Z,100.00
2017-09-06T18:51:10.150Z,100.00
2017-09-06T18:53:39.609Z,100.00
2017-09-06T18:56:09.106Z,100.00
2017-09-06T18:58:38.566Z,100.00
2017-09-06T19:01:08.066Z,100.00
2017-09-06T19:03:37.511Z,100.00
2017-09-06T19:06:06.959Z,100.00
2017-09-06T19:08:36.414Z,100.00
2017-09-06T19:11:05.881Z,100.00
2017-09-06T19:13:35.333Z,100.00
2017-09-06T19:16:04.798Z,100.00
2017-09-06T19:18:34.304Z,100.00
2017-09-06T19:21:03.787Z,100.00
2017-09-06T19:23:33.246Z,100.00
2017-09-06T19:26:02.716Z,100.00
2017-09-06T19:28:32.189Z,100.00
2017-09-06T19:31:01.629Z,100.00
2017-09-06T19:33:31.089Z,100.00
2017-09-06T19:36:00.620Z,100.00
2017-09-06T19:38:30.070Z,100.00
2017-09-06T19:40:59.527Z,100.00
2017-09-06T19:43:29.032Z,100.00
2017-09-06T19:45:58.518Z,100.00
2017-09-06T19:48:27.943Z,100.00
2017-09-06T19:50:57.425Z,100.00
2017-09-06T19:53:26.873Z,100.00
2017-09-06T19:55:56.342Z,100.00
2017-09-06T19:58:25.791Z,100.00
2017-09-06T20:00:55.239Z,100.00
2017-09-06T20:03:24.709Z,100.00
2017-09-06T20:05:54.170Z,100.00
2017-09-06T20:08:23.621Z,100.00
2017-09-06T20:10:53.090Z,100.00
2017-09-06T20:13:22.528Z,100.00
2017-09-06T20:15:52.130Z,100.00
2017-09-06T20:18:21.606Z,100.00
2017-09-06T20:20:51.261Z,100.00
2017-09-06T20:23:20.738Z,100.00
2017-09-06T20:25:50.197Z,100.00
2017-09-06T20:28:19.669Z,100.00
2017-09-06T20:30:49.594Z,100.00
2017-09-06T20:33:19.060Z,100.00
2017-09-06T20:35:48.525Z,100.00
2017-09-06T20:38:18.263Z,100.00
2017-09-06T20:40:47.841Z,100.00
2017-09-06T20:43:17.295Z,100.00
2017-09-06T20:45:46.770Z,100.00
2017-09-06T20:48:16.257Z,100.00
2017-09-06T20:50:45.695Z,100.00
2017-09-06T20:53:15.193Z,100.00
2017-09-06T20:55:44.636Z,100.00
2017-09-06T20:58:14.120Z,100.00
2017-09-06T21:00:43.569Z,100.00
2017-09-06T21:03:13.308Z,100.00
2017-09-06T21:05:42.770Z,100.00
2017-09-06T21:08:12.214Z,100.00
2017-09-06T21:10:41.673Z,100.00
2017-09-06T21:13:11.238Z,100.00
2017-09-06T21:15:40.701Z,100.00
2017-09-06T21:18:10.154Z,100.00
2017-09-06T21:20:39.845Z,100.00
2017-09-06T21:23:09.284Z,100.00
2017-09-06T21:25:38.743Z,100.00
2017-09-06T21:28:08.198Z,100.00
2017-09-06T21:30:37.639Z,100.00
2017-09-06T21:33:07.148Z,100.00
2017-09-06T21:35:36.617Z,100.00
2017-09-06T21:38:06.060Z,100.00
2017-09-06T21:40:35.509Z,100.00
2017-09-06T21:43:04.969Z,100.00
2017-09-06T21:45:34.247Z,100.00
2017-09-06T21:48:03.697Z,100.00
2017-09-06T21:50:33.194Z,100.00
2017-09-06T21:53:02.641Z,100.00
2017-09-06T21:55:32.086Z,100.00
2017-09-06T21:58:01.544Z,100.00
2017-09-06T22:00:31.001Z,100.00
2017-09-06T22:03:00.296Z,100.00
2017-09-06T22:05:29.782Z,100.00
2017-09-06T22:07:59.222Z,100.00
2017-09-06T22:10:28.677Z,100.00
2017-09-06T22:12:58.126Z,100.00
2017-09-06T22:15:27.569Z,100.00
2017-09-06T22:17:57.278Z,100.00
2017-09-06T22:20:26.972Z,100.00
2017-09-06T22:23:27.989Z,100.00
2017-09-06T22:25:57.428Z,100.00
2017-09-06T22:28:26.895Z,100.00
2017-09-06T22:30:56.378Z,100.00
2017-09-06T22:33:25.819Z,100.00
2017-09-06T22:35:55.269Z,100.00
2017-09-06T22:38:24.709Z,100.00
2017-09-06T22:40:54.177Z,100.00
2017-09-06T22:43:23.653Z,100.00
2017-09-06T22:45:53.099Z,100.00
2017-09-06T22:48:22.560Z,100.00
2017-09-06T22:50:52.004Z,100.00
2017-09-06T22:53:21.760Z,100.00
2017-09-06T22:55:51.030Z,100.00
2017-09-06T22:58:20.469Z,100.00
2017-09-06T23:00:49.928Z,100.00
2017-09-06T23:03:19.192Z,100.00
2017-09-06T23:05:48.637Z,100.00
2017-09-06T23:08:18.090Z,100.00
2017-09-06T23:10:47.894Z,100.00
2017-09-06T23:13:17.389Z,100.00
2017-09-06T23:15:46.725Z,100.00
2017-09-06T23:18:16.182Z,100.00
2017-09-06T23:20:45.681Z,100.00
2017-09-06T23:23:14.988Z,100.00
2017-09-06T23:25:44.465Z,100.00
2017-09-06T23:28:14.212Z,100.00
2017-09-06T23:30:43.977Z,100.00
2017-09-06T23:33:13.733Z,100.00
2017-09-06T23:35:43.502Z,100.00
2017-09-06T23:38:13.485Z,100.00
2017-09-06T23:40:43.420Z,100.00
2017-09-06T23:43:13.158Z,100.00
2017-09-06T23:45:42.906Z,100.00
2017-09-06T23:48:12.648Z,100.00
2017-09-06T23:50:42.389Z,100.00
2017-09-06T23:53:12.123Z,100.00
2017-09-06T23:55:41.852Z,100.00
2017-09-06T23:58:11.638Z,100.00
